Aviation Digital Data Service (ADDS)

Output produced by TAFs form (1000 UTC 22 May 2015)
found at http://aviationweather.gov/adds/tafs/
 
KAEG 220853Z 2209/2306 34006KT P6SM OVC030 
     FM221500 15009KT P6SM BKN040 
     FM221900 17012G22KT P6SM SCT200 
     FM230200 20010KT P6SM SKC